Time;durP1;ratioP1;P1;durP2;ratioP2;P2;SDS_P1;SDS_P2;PMS_P1;PMS_P2;Temp;Humidity;BMP_temperature;BMP_pressure;BME280_temperature;BME280_humidity;BME280_pressure;Samples;Min_cycle;Max_cycle;Signal;HPM_P1;HPM_P2
2023/12/09 00:02:30;;;;;;;103.82;30.42;;;7.30;99.90;;;;;;6189563;23;20070;-82
2023/12/09 00:05:33;;;;;;;108.15;32.03;;;7.30;99.90;;;;;;6042228;23;20078;-82
2023/12/09 00:08:08;;;;;;;107.30;32.47;;;7.30;99.90;;;;;;5960544;23;20024;-82
2023/12/09 00:10:46;;;;;;;108.20;28.55;;;7.30;99.90;;;;;;6163786;23;20056;-82
2023/12/09 00:13:26;;;;;;;113.65;33.22;;;7.40;99.90;;;;;;6189360;23;20456;-82
2023/12/09 00:16:05;;;;;;;127.38;31.17;;;7.30;99.90;;;;;;6189537;23;20055;-82
2023/12/09 00:18:40;;;;;;;114.22;29.83;;;7.30;99.90;;;;;;6188928;23;20096;-82
2023/12/09 00:21:15;;;;;;;99.57;26.30;;;7.30;99.90;;;;;;6189405;23;20021;-82
2023/12/09 00:23:49;;;;;;;102.97;30.20;;;7.40;99.90;;;;;;6189399;23;20059;-82
2023/12/09 00:28:50;;;;;;;103.45;28.73;;;7.40;99.90;;;;;;6214679;23;20024;-82
2023/12/09 00:31:22;;;;;;;95.10;23.75;;;7.40;99.90;;;;;;6189071;23;20094;-82
2023/12/09 00:33:51;;;;;;;110.30;29.05;;;7.30;99.90;;;;;;6189301;23;20047;-82
2023/12/09 00:36:18;;;;;;;103.97;30.73;;;7.40;99.90;;;;;;6188952;23;20021;-82
2023/12/09 00:38:55;;;;;;;100.32;28.38;;;7.40;99.90;;;;;;6189362;23;20080;-83
2023/12/09 00:41:30;;;;;;;113.00;31.20;;;7.40;99.90;;;;;;6189111;23;20457;-83
2023/12/09 00:44:24;;;;;;;87.63;24.98;;;7.40;99.90;;;;;;6190950;23;20143;-82
2023/12/09 00:47:14;;;;;;;102.72;24.65;;;7.40;99.90;;;;;;6191398;23;20012;-82
2023/12/09 00:50:05;;;;;;;101.97;28.90;;;7.40;99.90;;;;;;6198772;23;20023;-82
2023/12/09 00:52:59;;;;;;;94.35;26.55;;;7.40;99.90;;;;;;6191138;23;20106;-82
2023/12/09 00:55:55;;;;;;;85.68;25.67;;;7.50;99.90;;;;;;6191203;23;20332;-82
2023/12/09 00:58:42;;;;;;;95.07;28.40;;;7.40;99.90;;;;;;6191027;23;20426;-82
2023/12/09 01:01:26;;;;;;;89.47;26.10;;;7.40;99.90;;;;;;6190985;23;20503;-82
2023/12/09 01:03:52;;;;;;;89.28;25.83;;;7.40;99.90;;;;;;6190995;23;20021;-82
2023/12/09 01:06:29;;;;;;;84.47;26.10;;;7.40;99.90;;;;;;6190738;23;20096;-82
2023/12/09 01:09:10;;;;;;;99.97;26.48;;;7.40;99.90;;;;;;6190885;23;20020;-82
2023/12/09 01:11:36;;;;;;;94.20;28.40;;;7.40;99.90;;;;;;6190715;23;20017;-82
2023/12/09 01:14:10;;;;;;;90.88;26.58;;;7.40;99.90;;;;;;6191604;23;20031;-82
2023/12/09 01:16:54;;;;;;;92.45;25.45;;;7.50;99.90;;;;;;6190899;23;20028;-82
2023/12/09 01:19:29;;;;;;;101.50;26.30;;;7.40;99.90;;;;;;6190916;23;20012;-82
2023/12/09 01:22:01;;;;;;;82.68;24.08;;;7.40;99.90;;;;;;6191009;23;20120;-82
2023/12/09 01:24:38;;;;;;;94.32;26.10;;;7.50;99.90;;;;;;6190846;23;20044;-82
2023/12/09 01:27:07;;;;;;;100.75;25.83;;;7.40;99.90;;;;;;6190272;23;20024;-82
2023/12/09 01:29:57;;;;;;;97.60;26.10;;;7.40;99.90;;;;;;6191662;23;20024;-82
2023/12/09 01:32:43;;;;;;;87.13;25.48;;;7.40;99.90;;;;;;6190943;23;20020;-82
2023/12/09 01:35:22;;;;;;;91.78;25.73;;;7.40;99.90;;;;;;6190832;23;20099;-82
2023/12/09 01:38:02;;;;;;;84.28;26.13;;;7.40;99.90;;;;;;6190799;23;20021;-82
2023/12/09 01:40:30;;;;;;;79.43;25.52;;;7.40;99.90;;;;;;6191066;23;20009;-82
2023/12/09 01:42:59;;;;;;;93.95;26.45;;;7.40;99.90;;;;;;6190739;23;20122;-82
2023/12/09 01:45:37;;;;;;;103.60;26.80;;;7.40;99.90;;;;;;6190553;23;20044;-82
2023/12/09 01:48:22;;;;;;;87.40;28.27;;;7.30;99.90;;;;;;6190748;23;20096;-82
2023/12/09 01:50:49;;;;;;;90.40;25.92;;;7.30;99.90;;;;;;6190586;23;20443;-82
2023/12/09 01:53:15;;;;;;;96.30;26.17;;;7.30;99.90;;;;;;6190339;23;20444;-82
2023/12/09 01:55:54;;;;;;;96.57;30.10;;;7.30;99.90;;;;;;6189898;23;20020;-82
2023/12/09 01:58:33;;;;;;;95.25;26.20;;;7.30;99.90;;;;;;6190539;23;20017;-82
2023/12/09 02:01:06;;;;;;;88.75;25.52;;;7.30;99.90;;;;;;6190629;23;20096;-83
2023/12/09 02:04:02;;;;;;;73.32;25.23;;;7.30;99.90;;;;;;6190206;23;20065;-83
2023/12/09 02:06:28;;;;;;;76.90;26.40;;;7.30;99.90;;;;;;6190413;23;20013;-83
2023/12/09 02:09:23;;;;;;;;;;;;;;;;;;;;;
2023/12/09 02:12:35;;;;;;;;;;;;;;;;;;;;;
2023/12/09 02:16:05;;;;;;;71.55;22.65;;;7.40;99.90;;;;;;6190450;23;19942;-83
2023/12/09 02:19:07;;;;;;;80.90;27.27;;;7.30;99.90;;;;;;6190545;23;20043;-83
2023/12/09 02:22:16;;;;;;;71.82;26.42;;;7.30;99.90;;;;;;6172257;23;20016;-83
2023/12/09 02:24:51;;;;;;;77.35;23.65;;;7.30;99.90;;;;;;6190340;23;20020;-82
2023/12/09 02:27:54;;;;;;;69.75;24.80;;;7.40;99.90;;;;;;6198067;22;20039;-82
2023/12/09 02:30:53;;;;;;;72.90;23.80;;;7.40;99.90;;;;;;6250673;22;20034;-83
2023/12/09 02:33:25;;;;;;;75.63;23.95;;;7.40;99.90;;;;;;6249988;22;20347;-83
2023/12/09 02:36:09;;;;;;;74.13;23.20;;;7.40;99.90;;;;;;6250824;22;20015;-83
2023/12/09 02:38:56;;;;;;;;;;;7.40;99.90;;;;;;6251135;22;20461;-83
2023/12/09 02:41:37;;;;;;;80.20;24.92;;;7.30;99.90;;;;;;6250733;22;20393;-83
2023/12/09 02:44:19;;;;;;;78.78;23.42;;;7.30;99.90;;;;;;6250329;22;20045;-83
2023/12/09 02:47:17;;;;;;;79.00;25.63;;;7.30;99.90;;;;;;6247841;22;20341;-83
2023/12/09 02:50:04;;;;;;;76.28;24.83;;;7.30;99.90;;;;;;6189874;23;20027;-83
2023/12/09 02:52:34;;;;;;;65.05;23.40;;;7.30;99.90;;;;;;6186078;23;20804;-83
2023/12/09 02:55:24;;;;;;;83.65;24.63;;;7.30;99.90;;;;;;6189923;23;20051;-83
2023/12/09 02:57:50;;;;;;;68.47;23.38;;;7.40;99.90;;;;;;6189898;23;20017;-83
2023/12/09 03:00:35;;;;;;;79.05;22.83;;;7.40;99.90;;;;;;6189798;23;20059;-83
2023/12/09 03:03:09;;;;;;;78.00;25.52;;;7.40;99.90;;;;;;6189705;23;20016;-83
2023/12/09 03:05:54;;;;;;;66.05;23.83;;;7.30;99.90;;;;;;6189787;23;20024;-83
2023/12/09 03:08:41;;;;;;;73.50;27.30;;;7.40;99.90;;;;;;6189849;23;20107;-83
2023/12/09 03:11:13;;;;;;;76.03;25.17;;;7.40;99.90;;;;;;6189886;23;20390;-83
2023/12/09 03:13:57;;;;;;;69.15;24.42;;;7.40;99.90;;;;;;6189743;23;20009;-83
2023/12/09 03:16:28;;;;;;;72.30;23.63;;;7.40;99.90;;;;;;6189868;23;20027;-83
2023/12/09 03:18:54;;;;;;;76.68;26.45;;;7.40;99.90;;;;;;6189936;23;20016;-83
2023/12/09 03:21:23;;;;;;;75.75;26.77;;;7.40;99.90;;;;;;6189832;23;20017;-83
2023/12/09 03:23:54;;;;;;;67.45;24.95;;;7.40;99.90;;;;;;6189775;23;20028;-83
2023/12/09 03:26:32;;;;;;;67.18;24.00;;;7.30;99.90;;;;;;6189589;23;20013;-83
2023/12/09 03:29:10;;;;;;;70.43;22.92;;;7.40;99.90;;;;;;6189754;23;20021;-83
2023/12/09 03:32:16;;;;;;;62.22;23.38;;;7.40;99.90;;;;;;6186568;23;20024;-83
2023/12/09 03:35:19;;;;;;;70.45;24.40;;;7.30;99.90;;;;;;6189336;23;20392;-83
2023/12/09 03:38:05;;;;;;;68.93;22.75;;;7.40;99.90;;;;;;6189709;23;20048;-83
2023/12/09 03:40:31;;;;;;;69.50;23.60;;;7.40;99.90;;;;;;6189700;23;20087;-83
2023/12/09 03:43:12;;;;;;;70.10;20.98;;;7.40;99.90;;;;;;6189558;23;20369;-83
2023/12/09 03:45:41;;;;;;;59.55;21.95;;;7.40;99.90;;;;;;6189726;23;20013;-83
2023/12/09 03:48:26;;;;;;;62.53;21.40;;;7.40;99.90;;;;;;6189721;23;20021;-82
2023/12/09 03:51:02;;;;;;;61.72;21.38;;;7.40;99.90;;;;;;6189136;23;20021;-83
2023/12/09 03:53:59;;;;;;;62.67;22.15;;;7.40;99.90;;;;;;6189308;23;20455;-84
2023/12/09 03:56:31;;;;;;;63.67;23.60;;;7.40;99.90;;;;;;6189232;23;20016;-83
2023/12/09 03:59:40;;;;;;;64.70;22.58;;;7.40;99.90;;;;;;6189336;23;20020;-84
2023/12/09 04:02:41;;;;;;;61.70;21.55;;;7.40;99.90;;;;;;6187199;23;20020;-84
2023/12/09 04:05:07;;;;;;;53.08;19.88;;;7.40;99.90;;;;;;6189349;23;20044;-82
2023/12/09 04:08:21;;;;;;;68.20;21.73;;;7.40;99.90;;;;;;6189199;23;20028;-83
2023/12/09 04:10:53;;;;;;;57.95;20.60;;;7.30;99.90;;;;;;6154645;23;20013;-83
2023/12/09 04:13:47;;;;;;;61.10;20.33;;;7.30;99.90;;;;;;6216100;23;20087;-82
2023/12/09 04:16:19;;;;;;;46.88;17.73;;;7.40;99.90;;;;;;6189453;23;20012;-82
2023/12/09 04:19:04;;;;;;;46.13;19.27;;;7.40;99.90;;;;;;6189133;23;20016;-83
2023/12/09 04:21:30;;;;;;;66.15;21.05;;;7.30;99.90;;;;;;6185144;23;20016;-83
2023/12/09 04:24:02;;;;;;;50.22;17.88;;;7.40;99.90;;;;;;6188915;23;20406;-83
2023/12/09 04:26:57;;;;;;;56.13;18.48;;;7.40;99.90;;;;;;6189418;23;20046;-83
2023/12/09 04:32:05;;;;;;;56.85;21.10;;;7.40;99.90;;;;;;6245845;22;20035;-83
2023/12/09 04:34:35;;;;;;;51.80;18.92;;;7.40;99.90;;;;;;6219320;23;20016;-83
2023/12/09 04:37:37;;;;;;;51.55;19.50;;;7.40;99.90;;;;;;6211303;23;20066;-83
2023/12/09 04:40:42;;;;;;;55.85;20.38;;;7.40;99.90;;;;;;6219568;23;20023;-83
2023/12/09 04:43:31;;;;;;;58.08;20.90;;;7.30;99.90;;;;;;6191563;23;20471;-83
2023/12/09 04:46:10;;;;;;;57.50;19.05;;;7.30;99.90;;;;;;6219286;23;20016;-83
2023/12/09 04:48:38;;;;;;;57.75;21.88;;;7.30;99.90;;;;;;6219468;23;20507;-83
2023/12/09 04:51:17;;;;;;;54.72;20.52;;;7.40;99.90;;;;;;6219000;23;20016;-83
2023/12/09 04:59:36;;;;;;;60.05;20.38;;;7.30;99.90;;;;;;6214354;23;20016;-83
2023/12/09 05:02:50;;;;;;;51.60;19.25;;;7.30;99.90;;;;;;6174525;23;20353;-83
2023/12/09 05:05:16;;;;;;;57.85;19.50;;;7.30;99.90;;;;;;6175835;23;20013;-83
2023/12/09 05:07:51;;;;;;;53.10;18.73;;;7.40;99.90;;;;;;6189086;23;20095;-83
2023/12/09 05:11:09;;;;;;;51.67;19.23;;;7.30;99.90;;;;;;6189123;23;20009;-83
2023/12/09 05:19:48;;;;;;;55.28;21.15;;;7.40;99.90;;;;;;6099501;23;20053;-83
2023/12/09 05:22:14;;;;;;;50.20;20.05;;;7.40;99.90;;;;;;6099595;23;20025;-84
2023/12/09 05:25:00;;;;;;;;;;;;;;;;;;;;;
2023/12/09 05:27:41;;;;;;;52.22;20.55;;;7.30;99.90;;;;;;6102370;23;20031;-83
2023/12/09 05:30:09;;;;;;;53.08;19.92;;;7.30;99.90;;;;;;6189511;23;20013;-84
2023/12/09 05:32:43;;;;;;;59.50;21.27;;;7.30;99.90;;;;;;6189856;23;20023;-83
2023/12/09 05:35:24;;;;;;;55.75;19.77;;;7.30;99.90;;;;;;6190518;23;20023;-83
2023/12/09 05:37:50;;;;;;;49.92;19.15;;;7.40;99.90;;;;;;6190695;23;20066;-83
2023/12/09 05:40:15;;;;;;;53.72;19.83;;;7.30;99.90;;;;;;6190677;23;20021;-83
2023/12/09 05:43:14;;;;;;;52.67;19.70;;;7.40;99.90;;;;;;6188892;23;20017;-83
2023/12/09 05:46:01;;;;;;;57.95;18.63;;;7.30;99.90;;;;;;6190711;23;20016;-83
2023/12/09 05:48:50;;;;;;;41.40;18.02;;;7.30;99.90;;;;;;6190399;23;20017;-83
2023/12/09 05:51:36;;;;;;;48.78;19.20;;;7.30;99.90;;;;;;6190694;23;20079;-84
2023/12/09 05:54:04;;;;;;;48.45;18.55;;;7.30;99.90;;;;;;6189135;23;20340;-84
2023/12/09 05:56:33;;;;;;;55.85;18.98;;;7.30;99.90;;;;;;6190537;23;20012;-84
2023/12/09 05:59:05;;;;;;;47.70;16.30;;;7.40;99.90;;;;;;6189977;23;20017;-84
2023/12/09 06:01:40;;;;;;;47.35;17.30;;;7.30;99.90;;;;;;6190554;23;20376;-84
2023/12/09 06:04:24;;;;;;;42.95;16.33;;;7.30;99.90;;;;;;6190493;23;20013;-84
2023/12/09 06:07:24;;;;;;;48.20;18.40;;;7.30;99.90;;;;;;6190538;23;20063;-83
2023/12/09 06:12:46;;;;;;;50.50;17.85;;;7.30;99.90;;;;;;6190357;23;20161;-84
2023/12/09 06:15:35;;;;;;;38.60;16.70;;;7.20;99.90;;;;;;6190269;23;20012;-84
2023/12/09 06:18:13;;;;;;;46.33;17.73;;;7.20;99.90;;;;;;6190451;23;20017;-84
2023/12/09 06:20:51;;;;;;;43.05;17.58;;;7.20;99.90;;;;;;6190107;23;20019;-84
2023/12/09 06:23:39;;;;;;;37.53;16.52;;;7.20;99.90;;;;;;6190459;23;20039;-84
2023/12/09 06:26:49;;;;;;;40.70;16.70;;;7.20;99.90;;;;;;6190268;23;20027;-84
2023/12/09 06:29:21;;;;;;;36.65;15.77;;;7.20;99.90;;;;;;6170638;23;20016;-84
2023/12/09 06:32:02;;;;;;;36.67;14.70;;;7.20;99.90;;;;;;6190304;23;20017;-84
2023/12/09 06:34:38;;;;;;;39.70;16.48;;;7.20;99.90;;;;;;6190136;23;20052;-84
2023/12/09 06:37:13;;;;;;;51.45;16.50;;;7.10;99.90;;;;;;6191113;23;20067;-84
2023/12/09 06:39:54;;;;;;;41.70;16.55;;;7.10;99.90;;;;;;6190078;23;20028;-84
2023/12/09 06:42:25;;;;;;;45.97;16.60;;;7.10;99.90;;;;;;6190146;23;20019;-84
2023/12/09 06:44:51;;;;;;;43.15;15.90;;;7.10;99.90;;;;;;6189990;23;20096;-84
2023/12/09 06:47:28;;;;;;;49.63;16.65;;;7.10;99.90;;;;;;6186625;23;20051;-84
2023/12/09 06:50:12;;;;;;;42.47;15.20;;;7.10;99.90;;;;;;6189959;23;20318;-84
2023/12/09 06:53:09;;;;;;;42.53;15.52;;;7.10;99.90;;;;;;6189520;23;20020;-84
2023/12/09 06:56:17;;;;;;;45.00;16.05;;;7.10;99.90;;;;;;6187873;23;20548;-84
2023/12/09 06:59:05;;;;;;;;;;;;;;;;;;;;;
2023/12/09 07:01:49;;;;;;;37.83;15.70;;;7.00;99.90;;;;;;6066776;23;20023;-85
2023/12/09 07:04:20;;;;;;;45.47;16.15;;;7.00;99.90;;;;;;6164712;23;20373;-85
2023/12/09 07:07:40;;;;;;;41.25;16.00;;;7.00;99.90;;;;;;6189793;23;20465;-84
2023/12/09 07:10:27;;;;;;;41.45;14.90;;;7.00;99.90;;;;;;6042497;23;20031;-84
2023/12/09 07:12:58;;;;;;;53.20;16.30;;;7.00;99.90;;;;;;6041891;23;20014;-84
2023/12/09 07:15:23;;;;;;;43.25;15.43;;;7.00;99.90;;;;;;6042938;23;20022;-84
2023/12/09 07:17:55;;;;;;;40.47;14.75;;;7.00;99.90;;;;;;6042664;23;20071;-84
2023/12/09 07:20:39;;;;;;;42.03;14.70;;;7.00;99.90;;;;;;6071587;23;20023;-84
2023/12/09 07:23:05;;;;;;;31.17;13.52;;;7.00;99.90;;;;;;6188203;23;20021;-84
2023/12/09 07:25:39;;;;;;;40.92;15.80;;;7.00;99.90;;;;;;6189608;23;20059;-84
2023/12/09 07:28:11;;;;;;;39.38;13.65;;;7.00;99.90;;;;;;6189640;23;20380;-85
2023/12/09 07:30:49;;;;;;;34.28;13.82;;;7.00;99.90;;;;;;6189271;23;20147;-84
2023/12/09 07:33:56;;;;;;;36.97;12.73;;;7.00;99.90;;;;;;6189530;23;20091;-84
2023/12/09 07:36:43;;;;;;;41.35;14.40;;;7.00;99.90;;;;;;6041674;23;20027;-84
2023/12/09 07:39:14;;;;;;;40.22;13.75;;;7.00;99.90;;;;;;6041343;23;20043;-84
2023/12/09 07:42:26;;;;;;;41.25;14.05;;;7.00;99.90;;;;;;6041128;23;20098;-84
2023/12/09 07:50:39;;;;;;;43.40;14.18;;;6.90;99.90;;;;;;6246346;23;20047;-85
2023/12/09 07:53:41;;;;;;;37.20;13.18;;;7.00;99.90;;;;;;6201170;23;20024;-84
2023/12/09 07:56:25;;;;;;;37.97;14.52;;;6.90;99.90;;;;;;6219372;23;20019;-85
2023/12/09 08:05:54;;;;;;;41.35;14.25;;;6.90;99.90;;;;;;6219852;23;20463;-86
2023/12/09 08:08:39;;;;;;;34.13;12.55;;;6.90;99.90;;;;;;6219397;23;20016;-86
2023/12/09 08:11:35;;;;;;;34.67;11.00;;;6.90;99.90;;;;;;6219023;23;20019;-85
2023/12/09 08:14:17;;;;;;;30.88;12.18;;;6.90;99.90;;;;;;6219239;23;20016;-85
2023/12/09 08:16:43;;;;;;;33.03;12.20;;;6.90;99.90;;;;;;6218462;23;20043;-85
2023/12/09 08:19:13;;;;;;;33.50;12.93;;;6.90;99.90;;;;;;6219047;23;20254;-85
2023/12/09 08:22:00;;;;;;;39.25;12.27;;;6.90;99.90;;;;;;6219004;23;20021;-84
2023/12/09 08:24:29;;;;;;;34.55;12.18;;;6.90;99.90;;;;;;6219798;23;20095;-85
2023/12/09 08:26:56;;;;;;;29.50;12.13;;;6.90;99.90;;;;;;6218911;23;20024;-85
2023/12/09 08:29:56;;;;;;;39.28;12.18;;;6.90;99.90;;;;;;6219052;23;20082;-85
2023/12/09 08:32:50;;;;;;;34.90;11.75;;;6.90;99.90;;;;;;6218982;23;20024;-85
2023/12/09 08:35:53;;;;;;;45.00;11.50;;;6.90;99.90;;;;;;6240515;23;20433;-86
2023/12/09 08:38:44;;;;;;;32.47;11.43;;;6.90;99.90;;;;;;6218942;23;20336;-85
2023/12/09 08:41:24;;;;;;;33.70;11.32;;;6.90;99.90;;;;;;6219000;23;20021;-84
2023/12/09 08:43:59;;;;;;;;;;;6.90;99.90;;;;;;6219595;23;20031;-84
2023/12/09 08:46:40;;;;;;;38.58;10.50;;;6.90;99.90;;;;;;6218717;23;19920;-83
2023/12/09 08:49:06;;;;;;;40.25;9.85;;;7.00;99.90;;;;;;6213092;23;20024;-82
2023/12/09 08:51:54;;;;;;;36.90;10.70;;;7.00;99.90;;;;;;6214050;23;20489;-82
2023/12/09 08:54:35;;;;;;;35.05;10.93;;;6.90;99.90;;;;;;6213863;23;20024;-83
2023/12/09 08:57:00;;;;;;;31.70;9.63;;;6.90;99.90;;;;;;6214049;23;20023;-83
2023/12/09 08:59:26;;;;;;;32.47;10.02;;;7.00;99.90;;;;;;6214009;23;20013;-83
2023/12/09 09:01:51;;;;;;;34.83;10.73;;;7.00;99.90;;;;;;6213905;23;20071;-82
2023/12/09 09:04:19;;;;;;;43.40;13.13;;;7.00;99.90;;;;;;6215064;23;20028;-85
2023/12/09 09:06:45;;;;;;;28.65;11.13;;;7.00;99.90;;;;;;6215922;23;20475;-80
2023/12/09 09:09:11;;;;;;;33.25;11.25;;;7.00;99.90;;;;;;6216116;23;20016;-83
2023/12/09 09:11:37;;;;;;;33.72;10.75;;;7.00;99.90;;;;;;6216211;23;20066;-82
2023/12/09 09:14:02;;;;;;;37.05;10.02;;;7.00;99.90;;;;;;6215946;23;20017;-86
2023/12/09 09:16:28;;;;;;;36.65;9.93;;;7.00;99.90;;;;;;6215764;23;20021;-83
2023/12/09 09:18:54;;;;;;;29.38;10.43;;;7.00;99.90;;;;;;6215876;23;20083;-83
2023/12/09 09:21:20;;;;;;;29.05;9.43;;;7.00;99.90;;;;;;6217782;23;20032;-85
2023/12/09 09:23:45;;;;;;;37.08;13.85;;;7.10;99.90;;;;;;6215748;23;20017;-82
2023/12/09 09:26:11;;;;;;;26.73;12.00;;;7.00;99.90;;;;;;6215855;23;20042;-82
2023/12/09 09:28:37;;;;;;;34.53;11.80;;;7.10;99.90;;;;;;6215757;23;20013;-81
2023/12/09 09:31:02;;;;;;;27.67;9.52;;;7.10;99.90;;;;;;6215567;23;20020;-82
2023/12/09 09:33:28;;;;;;;29.50;11.73;;;7.10;99.90;;;;;;6215713;23;20021;-82
2023/12/09 09:35:54;;;;;;;26.98;10.15;;;7.10;99.90;;;;;;6215626;23;20340;-82
2023/12/09 09:38:20;;;;;;;30.75;8.73;;;7.10;99.90;;;;;;6217319;23;20035;-83
2023/12/09 09:40:46;;;;;;;31.30;10.85;;;7.10;99.90;;;;;;6217516;23;20325;-82
2023/12/09 09:43:25;;;;;;;29.67;9.73;;;7.00;99.90;;;;;;6215552;23;20395;-82
2023/12/09 09:45:52;;;;;;;25.20;9.68;;;7.00;99.90;;;;;;6215404;23;20017;-83
2023/12/09 09:48:20;;;;;;;29.23;10.23;;;7.00;99.90;;;;;;6215266;23;20020;-82
2023/12/09 09:50:52;;;;;;;33.42;11.27;;;7.10;99.90;;;;;;6216973;23;20064;-83
2023/12/09 09:53:34;;;;;;;30.67;9.52;;;7.00;99.90;;;;;;6215522;23;20052;-83
2023/12/09 09:56:01;;;;;;;32.95;9.82;;;7.10;99.90;;;;;;6215527;23;20459;-83
2023/12/09 09:58:27;;;;;;;26.88;9.23;;;7.10;99.90;;;;;;6215565;23;20017;-84
2023/12/09 10:00:55;;;;;;;27.25;10.07;;;7.10;99.90;;;;;;6215445;23;20021;-82
2023/12/09 10:03:21;;;;;;;28.27;8.43;;;7.00;99.90;;;;;;6215419;23;20453;-83
2023/12/09 10:05:48;;;;;;;28.17;9.07;;;7.10;99.90;;;;;;6214509;23;20519;-83
2023/12/09 10:08:13;;;;;;;22.38;9.27;;;7.10;99.90;;;;;;6215341;23;20020;-82
2023/12/09 10:10:39;;;;;;;32.25;8.88;;;7.10;99.90;;;;;;6215178;23;20016;-82
2023/12/09 10:13:05;;;;;;;25.65;8.43;;;7.10;99.90;;;;;;6215381;23;20047;-81
2023/12/09 10:15:32;;;;;;;26.92;8.93;;;7.10;99.90;;;;;;6214878;23;20005;-81
2023/12/09 10:18:03;;;;;;;26.20;7.88;;;7.10;99.90;;;;;;6215801;23;20027;-81
2023/12/09 10:20:29;;;;;;;25.98;8.90;;;7.10;99.90;;;;;;6215299;23;20013;-82
2023/12/09 10:22:57;;;;;;;20.70;7.70;;;7.10;99.90;;;;;;6216695;23;20344;-81
2023/12/09 10:25:23;;;;;;;25.20;8.63;;;7.10;99.90;;;;;;6215504;23;20020;-82
2023/12/09 10:27:48;;;;;;;23.58;8.10;;;7.10;99.90;;;;;;6215183;23;20343;-82
2023/12/09 10:30:18;;;;;;;33.38;9.70;;;7.20;99.90;;;;;;6216483;23;20059;-82
2023/12/09 10:32:46;;;;;;;26.92;8.93;;;7.20;99.90;;;;;;6215084;23;20392;-82
2023/12/09 10:35:11;;;;;;;18.52;6.97;;;7.20;99.90;;;;;;6215133;23;20021;-83
2023/12/09 10:37:37;;;;;;;20.08;8.02;;;7.20;99.90;;;;;;6215011;23;20013;-83
2023/12/09 10:40:06;;;;;;;26.58;7.60;;;7.20;99.90;;;;;;6215554;23;20024;-84
2023/12/09 10:42:38;;;;;;;18.55;6.85;;;7.20;99.90;;;;;;6216710;23;20090;-82
2023/12/09 10:45:05;;;;;;;23.33;6.95;;;7.20;99.90;;;;;;6215185;23;20086;-82
2023/12/09 10:47:31;;;;;;;18.45;7.05;;;7.20;99.90;;;;;;6215142;23;20012;-82
2023/12/09 10:49:57;;;;;;;19.58;5.88;;;7.30;99.90;;;;;;6219813;23;20066;-84
2023/12/09 10:52:22;;;;;;;19.13;5.95;;;7.30;99.90;;;;;;6220006;23;20348;-84
2023/12/09 10:54:48;;;;;;;18.02;6.10;;;7.30;99.90;;;;;;6246513;23;20020;-84
2023/12/09 10:57:16;;;;;;;26.33;6.75;;;7.30;99.90;;;;;;6246899;23;20020;-84
2023/12/09 10:59:43;;;;;;;17.15;6.53;;;7.30;99.90;;;;;;6220358;23;20102;-84
2023/12/09 11:02:09;;;;;;;18.50;6.18;;;7.30;99.90;;;;;;6246900;23;20023;-83
2023/12/09 11:04:36;;;;;;;18.17;7.53;;;7.30;99.90;;;;;;6219673;23;20016;-83
2023/12/09 11:07:04;;;;;;;20.58;6.80;;;7.40;99.90;;;;;;6219928;23;20056;-83
2023/12/09 11:09:31;;;;;;;18.33;6.40;;;7.40;99.90;;;;;;6219907;23;20051;-84
2023/12/09 11:11:58;;;;;;;38.70;12.68;;;7.40;99.90;;;;;;6219594;23;20012;-82
2023/12/09 11:14:27;;;;;;;17.45;6.28;;;7.40;99.90;;;;;;6219767;23;20027;-82
2023/12/09 11:16:57;;;;;;;22.33;6.13;;;7.50;99.90;;;;;;6219629;23;20040;-82
2023/12/09 11:19:24;;;;;;;19.35;6.13;;;7.50;99.90;;;;;;6220085;23;20019;-84
2023/12/09 11:21:52;;;;;;;27.27;6.55;;;7.50;99.90;;;;;;6219584;23;20503;-83
2023/12/09 11:24:21;;;;;;;16.15;5.97;;;7.50;99.90;;;;;;6219731;23;20046;-84
2023/12/09 11:26:47;;;;;;;13.45;5.50;;;7.50;99.90;;;;;;6219138;23;20739;-83
2023/12/09 11:29:17;;;;;;;17.63;5.72;;;7.50;99.90;;;;;;6219638;23;20016;-84
2023/12/09 11:31:46;;;;;;;19.75;5.68;;;7.50;99.90;;;;;;6219486;23;20023;-81
2023/12/09 11:34:17;;;;;;;12.98;4.55;;;7.50;99.90;;;;;;6218654;23;20043;-81
2023/12/09 11:36:43;;;;;;;16.83;5.35;;;7.50;99.90;;;;;;6219761;23;20016;-84
2023/12/09 11:39:14;;;;;;;16.08;5.93;;;7.50;99.90;;;;;;6218773;23;20023;-83
2023/12/09 11:41:44;;;;;;;18.38;5.38;;;7.60;99.90;;;;;;6219317;23;20016;-83
2023/12/09 11:44:11;;;;;;;21.48;5.25;;;7.60;99.90;;;;;;6219159;23;20452;-85
2023/12/09 11:46:37;;;;;;;17.90;5.10;;;7.50;99.90;;;;;;6219318;23;20012;-84
2023/12/09 11:49:06;;;;;;;13.50;4.60;;;7.60;99.90;;;;;;6219015;23;20401;-84
2023/12/09 11:51:35;;;;;;;15.40;4.70;;;7.60;99.90;;;;;;6219041;23;20024;-84
2023/12/09 11:54:08;;;;;;;16.75;5.05;;;7.60;99.90;;;;;;6219131;23;20025;-83
2023/12/09 11:56:35;;;;;;;15.60;4.38;;;7.50;99.90;;;;;;6219293;23;20062;-82
2023/12/09 11:59:00;;;;;;;16.65;4.50;;;7.50;99.90;;;;;;6219139;23;20039;-84
2023/12/09 12:01:31;;;;;;;15.50;6.10;;;7.50;99.90;;;;;;6219325;23;20432;-88
2023/12/09 12:03:58;;;;;;;15.55;4.22;;;7.50;99.90;;;;;;6219298;23;20441;-85
2023/12/09 12:06:24;;;;;;;13.02;4.28;;;7.50;99.90;;;;;;6219454;23;20012;-84
2023/12/09 12:08:53;;;;;;;19.33;5.55;;;7.50;99.90;;;;;;6219326;23;20016;-85
2023/12/09 12:11:21;;;;;;;11.20;3.70;;;7.50;99.90;;;;;;6219011;23;20113;-85
2023/12/09 12:13:48;;;;;;;18.85;4.78;;;7.50;99.90;;;;;;6219426;23;20020;-85
2023/12/09 12:16:13;;;;;;;15.52;5.28;;;7.50;99.90;;;;;;6219210;23;20051;-85
2023/12/09 12:18:39;;;;;;;11.70;3.75;;;7.50;99.90;;;;;;6219320;23;20090;-85
2023/12/09 12:21:06;;;;;;;12.75;4.28;;;7.50;99.90;;;;;;6219055;23;20325;-87
2023/12/09 12:23:32;;;;;;;17.13;4.82;;;7.50;99.90;;;;;;6218968;23;20020;-85
2023/12/09 12:25:58;;;;;;;15.48;4.43;;;7.50;99.90;;;;;;6218870;23;20024;-82
2023/12/09 12:28:24;;;;;;;17.77;4.15;;;7.50;99.90;;;;;;6219040;23;20143;-82
2023/12/09 12:30:55;;;;;;;16.20;4.88;;;7.50;99.90;;;;;;6245852;23;20019;-82
2023/12/09 12:33:24;;;;;;;12.55;4.00;;;7.50;99.90;;;;;;6219213;23;20306;-82
2023/12/09 12:35:54;;;;;;;8.55;3.63;;;7.60;99.90;;;;;;6245922;23;20023;-83
2023/12/09 12:38:26;;;;;;;17.30;3.97;;;7.50;99.90;;;;;;6219468;23;20012;-83
2023/12/09 12:40:53;;;;;;;10.88;3.58;;;7.60;99.90;;;;;;6221234;23;20022;-82
2023/12/09 12:43:19;;;;;;;10.93;3.55;;;7.60;99.90;;;;;;6221313;23;20016;-83
2023/12/09 12:45:50;;;;;;;12.73;4.00;;;7.60;99.90;;;;;;6221198;23;20023;-83
2023/12/09 12:48:20;;;;;;;25.85;9.27;;;7.60;99.90;;;;;;6220362;23;20078;-83
2023/12/09 12:50:49;;;;;;;25.10;4.97;;;7.60;99.90;;;;;;6221087;23;20055;-83
2023/12/09 12:53:18;;;;;;;8.75;3.33;;;7.60;99.90;;;;;;6221118;23;20016;-86
2023/12/09 12:55:45;;;;;;;14.70;4.90;;;7.60;99.90;;;;;;6221085;23;20103;-83
2023/12/09 12:58:11;;;;;;;13.13;4.30;;;7.60;99.90;;;;;;6220943;23;20352;-82
2023/12/09 13:00:36;;;;;;;9.30;4.05;;;7.60;99.90;;;;;;6220929;23;20020;-84
2023/12/09 13:03:04;;;;;;;11.30;4.05;;;7.60;99.90;;;;;;6220748;23;20095;-84
2023/12/09 13:05:31;;;;;;;12.35;3.40;;;7.60;99.90;;;;;;6220758;23;20020;-83
2023/12/09 13:07:57;;;;;;;17.52;5.43;;;7.60;99.90;;;;;;6220640;23;20087;-85
2023/12/09 13:10:22;;;;;;;13.20;5.10;;;7.60;99.90;;;;;;6220924;23;20051;-85
2023/12/09 13:12:48;;;;;;;10.75;4.78;;;7.60;99.90;;;;;;6220985;23;20448;-85
2023/12/09 13:15:14;;;;;;;12.65;4.30;;;7.60;99.90;;;;;;6220953;23;20020;-86
2023/12/09 13:17:40;;;;;;;12.40;4.10;;;7.60;99.90;;;;;;6247823;23;20321;-85
2023/12/09 13:20:09;;;;;;;13.57;4.38;;;7.60;99.90;;;;;;6220859;23;20016;-85
2023/12/09 13:22:35;;;;;;;12.70;4.57;;;7.50;99.90;;;;;;6220819;23;20050;-86
2023/12/09 13:25:03;;;;;;;13.32;4.28;;;7.50;99.90;;;;;;6220856;23;20017;-85
2023/12/09 13:27:30;;;;;;;11.07;3.22;;;7.50;99.90;;;;;;6221447;23;20016;-85
2023/12/09 13:29:55;;;;;;;10.18;2.92;;;7.50;99.90;;;;;;6220855;23;20027;-86
2023/12/09 13:32:21;;;;;;;15.25;3.40;;;7.50;99.90;;;;;;6220881;23;20016;-85
2023/12/09 13:34:47;;;;;;;14.02;3.35;;;7.40;99.90;;;;;;6220977;23;20016;-86
2023/12/09 13:37:13;;;;;;;10.90;3.88;;;7.50;99.90;;;;;;6220925;23;20016;-88
2023/12/09 13:39:39;;;;;;;10.25;3.13;;;7.50;99.90;;;;;;6221049;23;20090;-88
2023/12/09 13:42:05;;;;;;;12.15;3.63;;;7.50;99.90;;;;;;6220941;23;20065;-88
2023/12/09 13:44:30;;;;;;;14.52;3.58;;;7.50;99.90;;;;;;6220771;23;20099;-85
2023/12/09 13:46:59;;;;;;;7.22;2.78;;;7.50;99.90;;;;;;6220893;23;20597;-87
2023/12/09 13:49:25;;;;;;;9.80;3.35;;;7.50;99.90;;;;;;6220263;23;20023;-86
2023/12/09 13:51:53;;;;;;;18.75;6.22;;;7.40;99.90;;;;;;6220402;23;20028;-87
2023/12/09 13:54:22;;;;;;;13.60;5.38;;;7.50;99.90;;;;;;6220714;23;20024;-87
2023/12/09 13:56:48;;;;;;;9.38;3.60;;;7.40;99.90;;;;;;6220756;23;20020;-86
2023/12/09 13:59:19;;;;;;;8.82;3.28;;;7.40;99.90;;;;;;6220521;23;20439;-86
2023/12/09 14:02:00;;;;;;;14.65;3.60;;;7.40;99.90;;;;;;6220644;23;20094;-86
2023/12/09 14:04:26;;;;;;;11.25;3.42;;;7.40;99.90;;;;;;6219924;23;20016;-85